METAR Data
IDs: Format: Raw Decoded Include TAF

Data at: 1938 UTC 21 Sep 2021

FALE 211900Z 20007KT 9999 SCT036 BKN041 16/12 Q1030 NOSIG